Byron Center, MI (49315)

2:39 PM EDT on August 27, 2016 (GMT -0400)
South Kent Landfill | | Change Station

Elev 770 ft 42.78 °N, 85.68 °W | Updated 28 seconds ago

Overcast
Overcast
71.4 °F
Feels Like 71.4 °F
N
6.0
Wind Variable Wind from SSE
Gusts 19.0 mph

Today
High -- | Low -- °F
--% Chance of Precip.
Yesterday
High -- | Low -- °F
Precip. -- in
Pressure 30.08 in
Visibility 10.0 miles
Clouds Few 4000 ft
Scattered Clouds 11000 ft
Overcast 14000 ft
Dew Point 70 °F
Humidity 96%
Rainfall 1.39 in
Snow Depth Not available.
7:02 AM 8:24 PM
Waning Crescent, 22% visible
METAR KGRR 271753Z 14011G16KT 10SM FEW040 SCT110 OVC140 22/19 A3008 RMK AO2 RAB28E46 SLP184 P0000 60097 T02170189 10217 20172 56020
Pressure 30.08 in
Visibility 10.0 miles
Clouds Few 4000 ft
Scattered Clouds 11000 ft
Overcast 14000 ft
Dew Point 70 °F
Humidity 96%
Rainfall 1.39 in
Snow Depth Not available.
7:02 AM 8:24 PM
Waning Crescent, 22% visible
METAR KGRR 271753Z 14011G16KT 10SM FEW040 SCT110 OVC140 22/19 A3008 RMK AO2 RAB28E46 SLP184 P0000 60097 T02170189 10217 20172 56020

10-Day Weather Forecast

Almanac

Astronomy

Aug. 27, 2016 Rise Set
Actual Time
Civil Twilight
Nautical Twilight
Astronomical Twilight
Moon
Length of Visible Light
Length of Day
Tomorrow will be .
, % of the Moon is Illuminated

Today's Extremes

State Highs State Lows

Community

WunderPhotos

Upload Photos

1,935,396 photos uploaded!

WunderBlog® & News

Nearby

Air Quality

  Air Quality AQ Index Pollutant
Not available.

Snow Depth

Station Depth Elevation

Earthquake Activity

City Distance Mag. Time & Date
Minimum magnitude displayed is 2.5.

Coastal Water Temperatures

Place Temperature

Stations

Nearby Weather Stations

Station Location Temp. Windchill Dew Point Humidity Wind Precip. Elev Updated Type
                   

Watches & Warnings

There are currently no watches in effect.